Time;durP1;ratioP1;P1;durP2;ratioP2;P2;SDS_P1;SDS_P2;PMS_P1;PMS_P2;Temp;Humidity;BMP_temperature;BMP_pressure;BME280_temperature;BME280_humidity;BME280_pressure;Samples;Min_cycle;Max_cycle;Signal;HPM_P1;HPM_P2
2022/03/11 00:00:49;;;;;;;7.53;5.03;;;;;;;14.80;19.54;101508.00;4932269;29;20051;-81
2022/03/11 00:03:18;;;;;;;8.65;5.72;;;;;;;14.78;19.43;101508.09;4936510;29;20131;-81
2022/03/11 00:05:46;;;;;;;8.57;5.28;;;;;;;14.75;19.24;101500.13;4942672;29;20052;-81
2022/03/11 00:08:13;;;;;;;7.78;5.03;;;;;;;14.73;19.31;101495.78;4937563;29;20099;-83
2022/03/11 00:10:40;;;;;;;8.30;5.28;;;;;;;14.70;19.44;101498.72;4929292;29;20396;-82
2022/03/11 00:13:08;;;;;;;10.23;5.95;;;;;;;14.67;19.23;101491.59;4928863;29;20048;-82
2022/03/11 00:15:35;;;;;;;7.25;4.97;;;;;;;14.65;19.60;101492.72;4936036;29;20114;-81
2022/03/11 00:18:02;;;;;;;8.48;5.25;;;;;;;14.63;19.39;101492.84;4935102;29;20488;-82
2022/03/11 00:20:31;;;;;;;9.35;5.35;;;;;;;14.62;19.56;101491.09;4933243;29;20059;-83
2022/03/11 00:22:59;;;;;;;7.65;4.82;;;;;;;14.61;19.47;101494.81;4935183;29;20082;-82
2022/03/11 00:25:26;;;;;;;8.38;5.50;;;;;;;14.57;19.58;101498.75;4925564;28;20480;-84
2022/03/11 00:27:53;;;;;;;7.35;5.10;;;;;;;14.55;19.35;101487.06;4934529;29;20055;-83
2022/03/11 00:30:22;;;;;;;8.07;5.00;;;;;;;14.56;19.56;101494.28;4925908;29;20138;-82
2022/03/11 00:32:49;;;;;;;7.90;5.20;;;;;;;14.52;19.39;101498.22;4921954;29;20110;-80
2022/03/11 00:35:15;;;;;;;7.57;5.13;;;;;;;14.52;19.50;101495.47;4940139;28;20388;-82
2022/03/11 00:37:43;;;;;;;9.23;5.03;;;;;;;14.51;19.70;101493.72;4932469;29;20048;-82
2022/03/11 00:40:14;;;;;;;7.82;4.78;;;;;;;14.52;19.50;101500.94;4942132;28;20594;-82
2022/03/11 00:42:40;;;;;;;8.68;4.63;;;;;;;14.50;19.67;101499.28;4915021;29;20141;-82
2022/03/11 00:45:08;;;;;;;8.80;4.88;;;;;;;14.50;19.65;101502.91;4923230;29;20519;-81
2022/03/11 00:47:35;;;;;;;8.40;4.82;;;;;;;14.49;19.57;101503.91;4934429;29;20059;-80
2022/03/11 00:50:02;;;;;;;7.30;4.80;;;;;;;14.47;19.58;101500.41;4918912;29;20141;-80
2022/03/11 00:52:29;;;;;;;7.90;4.82;;;;;;;14.45;19.66;101497.78;4923534;29;20051;-81
2022/03/11 00:54:56;;;;;;;7.00;4.45;;;;;;;14.45;19.55;101505.09;4932104;29;20051;-81
2022/03/11 00:57:23;;;;;;;7.43;4.72;;;;;;;14.44;19.54;101495.16;4934655;29;20525;-81
2022/03/11 00:59:49;;;;;;;7.03;4.35;;;;;;;14.45;19.55;101496.91;4937465;29;20062;-81
2022/03/11 01:02:17;;;;;;;9.13;5.60;;;;;;;14.45;19.83;101488.72;4935233;29;20055;-81
2022/03/11 01:04:44;;;;;;;7.03;4.57;;;;;;;14.45;19.58;101489.59;4948787;28;20047;-81
2022/03/11 01:07:11;;;;;;;7.07;4.80;;;;;;;14.43;19.79;101483.34;4938979;29;20052;-81
2022/03/11 01:09:38;;;;;;;7.60;4.82;;;;;;;14.43;19.87;101485.22;4921039;29;20044;-81
2022/03/11 01:12:04;;;;;;;8.55;4.72;;;;;;;14.42;19.86;101481.59;4930975;29;20550;-81
2022/03/11 01:14:31;;;;;;;8.02;5.00;;;;;;;14.42;19.81;101467.94;4916566;29;20115;-81
2022/03/11 01:16:58;;;;;;;6.68;4.40;;;;;;;14.43;19.66;101463.34;4933961;29;20117;-81
2022/03/11 01:19:25;;;;;;;7.63;4.78;;;;;;;14.44;19.59;101465.09;4921334;29;20054;-82
2022/03/11 01:21:52;;;;;;;8.77;5.05;;;;;;;14.43;19.55;101460.63;4920069;29;20071;-82
2022/03/11 01:24:21;;;;;;;6.80;4.88;;;;;;;14.42;19.72;101459.75;4936138;29;20051;-82
2022/03/11 01:26:48;;;;;;;8.32;5.00;;;;;;;14.40;19.54;101456.28;4944848;29;20558;-81
2022/03/11 01:29:14;;;;;;;8.70;4.60;;;;;;;14.37;19.92;101453.72;4932486;28;20471;-81
2022/03/11 01:31:41;;;;;;;8.55;5.03;;;;;;;14.35;19.86;101455.69;4937279;29;20538;-83
2022/03/11 01:34:08;;;;;;;7.05;4.60;;;;;;;14.32;19.77;101457.78;4934716;29;20058;-83
2022/03/11 01:36:35;;;;;;;7.72;4.55;;;;;;;14.30;19.72;101449.72;4943425;29;20086;-82
2022/03/11 01:39:02;;;;;;;7.78;4.82;;;;;;;14.29;20.03;101447.06;4925590;29;20347;-83
2022/03/11 01:41:29;;;;;;;8.32;4.80;;;;;;;14.28;19.75;101442.59;4934059;29;20067;-83
2022/03/11 01:44:04;;;;;;;6.95;4.90;;;;;;;14.29;19.96;101449.81;4932283;29;20448;-82
2022/03/11 01:46:32;;;;;;;7.00;4.50;;;;;;;14.24;19.90;101452.00;4922569;29;20476;-83
2022/03/11 01:49:00;;;;;;;7.40;4.65;;;;;;;14.24;19.99;101450.16;4932145;29;20051;-82
2022/03/11 01:51:30;;;;;;;6.95;4.70;;;;;;;14.24;20.24;101441.97;4934569;29;20506;-82
2022/03/11 01:53:57;;;;;;;7.78;5.20;;;;;;;14.20;20.10;101443.16;4930803;29;20095;-82
2022/03/11 01:56:25;;;;;;;7.60;4.68;;;;;;;14.20;19.90;101434.97;4943234;29;20486;-83
2022/03/11 01:58:54;;;;;;;8.43;5.03;;;;;;;14.19;20.03;101433.22;4930713;29;20056;-83
2022/03/11 02:01:22;;;;;;;7.82;4.93;;;;;;;14.15;19.93;101434.44;4933984;29;20048;-83
2022/03/11 02:03:49;;;;;;;8.32;4.82;;;;;;;14.13;20.40;101421.88;4923632;29;20043;-83
2022/03/11 02:06:17;;;;;;;7.30;4.90;;;;;;;14.12;19.93;101429.19;4939740;29;20052;-84
2022/03/11 02:08:44;;;;;;;9.10;5.85;;;;;;;14.09;20.21;101413.00;4916402;29;20087;-84
2022/03/11 02:11:11;;;;;;;9.65;5.65;;;;;;;14.09;20.22;101426.66;4920637;29;20047;-83
2022/03/11 02:13:48;;;;;;;8.32;5.25;;;;;;;14.08;20.33;101422.22;4931726;29;20070;-83
2022/03/11 02:16:17;;;;;;;7.35;4.68;;;;;;;14.04;20.28;101427.00;4930702;29;20411;-83
2022/03/11 02:18:44;;;;;;;8.48;5.45;;;;;;;14.02;20.37;101409.88;4931248;29;20065;-83
2022/03/11 02:21:12;;;;;;;7.57;5.00;;;;;;;14.02;20.36;101412.59;4933716;29;20115;-83
2022/03/11 02:23:51;;;;;;;9.38;5.35;;;;;;;14.02;20.56;101404.41;4925634;29;20545;-83
2022/03/11 02:26:19;;;;;;;8.43;5.72;;;;;;;13.98;20.41;101393.81;4925650;29;20456;-83
2022/03/11 02:28:47;;;;;;;7.78;4.68;;;;;;;13.98;20.69;101413.81;4918344;28;20115;-83
2022/03/11 02:31:14;;;;;;;8.82;5.40;;;;;;;13.94;20.24;101406.81;4921698;29;20052;-83
2022/03/11 02:33:41;;;;;;;8.57;5.47;;;;;;;13.92;20.66;101405.16;4899528;29;20072;-83
2022/03/11 02:36:09;;;;;;;8.88;5.43;;;;;;;13.89;20.59;101400.81;4911081;29;20224;-83
2022/03/11 02:38:38;;;;;;;8.55;5.47;;;;;;;13.88;20.94;101403.66;4912476;29;20630;-83
2022/03/11 02:41:05;;;;;;;8.02;5.22;;;;;;;13.84;20.80;101410.31;4911258;29;20051;-83
2022/03/11 02:43:33;;;;;;;7.75;5.50;;;;;;;13.82;20.82;101404.97;4911780;29;20048;-82
2022/03/11 02:46:00;;;;;;;8.95;5.68;;;;;;;13.79;20.82;101409.78;4897176;29;20055;-81
2022/03/11 02:48:27;;;;;;;8.73;5.45;;;;;;;13.76;20.84;101410.84;4930033;28;20138;-83
2022/03/11 02:50:54;;;;;;;8.90;5.13;;;;;;;13.75;20.78;101400.06;4903076;29;20059;-82
2022/03/11 02:53:22;;;;;;;8.95;5.18;;;;;;;13.72;20.71;101392.97;4927983;29;20478;-82
2022/03/11 02:55:48;;;;;;;8.18;5.18;;;;;;;13.70;20.96;101393.06;4895897;29;20055;-82
2022/03/11 02:58:15;;;;;;;9.50;5.82;;;;;;;13.70;21.31;101400.38;4911547;28;20613;-82
2022/03/11 03:00:42;;;;;;;9.35;5.43;;;;;;;13.69;21.11;101394.06;4929401;29;20558;-82
2022/03/11 03:03:09;;;;;;;9.20;5.95;;;;;;;13.68;21.39;101394.16;4938760;29;20047;-81
2022/03/11 03:05:37;;;;;;;9.23;5.82;;;;;;;13.65;21.24;101398.00;4934492;29;20504;-81
2022/03/11 03:08:04;;;;;;;8.98;6.15;;;;;;;13.64;21.05;101401.72;4932771;29;20056;-83
2022/03/11 03:10:30;;;;;;;9.27;5.88;;;;;;;13.63;21.48;101393.63;4931265;29;20130;-83
2022/03/11 03:12:57;;;;;;;9.73;6.03;;;;;;;13.60;21.20;101389.25;4924057;29;20079;-82
2022/03/11 03:15:24;;;;;;;7.72;4.85;;;;;;;13.58;21.33;101393.09;4927412;29;20055;-83
2022/03/11 03:17:51;;;;;;;9.13;5.32;;;;;;;13.56;21.40;101398.66;4932873;29;20047;-83
2022/03/11 03:20:18;;;;;;;9.68;5.35;;;;;;;13.55;21.34;101399.63;4918565;29;20046;-83
2022/03/11 03:22:45;;;;;;;9.00;5.53;;;;;;;13.54;21.33;101395.16;4923603;29;20055;-83
2022/03/11 03:25:12;;;;;;;9.07;5.85;;;;;;;13.53;21.42;101387.94;4940797;29;20066;-83
2022/03/11 03:27:39;;;;;;;9.18;5.20;;;;;;;13.51;21.52;101395.34;4926768;29;20055;-82
2022/03/11 03:30:06;;;;;;;8.80;5.75;;;;;;;13.53;21.60;101390.66;4917157;29;20063;-82
2022/03/11 03:32:33;;;;;;;10.57;6.45;;;;;;;13.49;21.55;101389.16;4917883;29;20060;-82
2022/03/11 03:35:00;;;;;;;9.70;6.10;;;;;;;13.47;21.83;101388.38;4930549;29;20054;-82
2022/03/11 03:37:27;;;;;;;9.82;6.28;;;;;;;13.46;21.66;101393.94;4918027;29;20047;-82
2022/03/11 03:39:54;;;;;;;10.55;5.85;;;;;;;13.46;21.63;101389.34;4917771;29;20052;-83
2022/03/11 03:42:20;;;;;;;9.93;6.10;;;;;;;13.45;21.59;101392.19;4927497;29;20044;-82
2022/03/11 03:44:47;;;;;;;9.45;6.18;;;;;;;13.42;21.66;101395.16;4925329;28;20503;-82
2022/03/11 03:47:14;;;;;;;8.68;5.45;;;;;;;13.41;21.77;101388.81;4927461;29;20056;-82
2022/03/11 03:49:41;;;;;;;8.43;5.78;;;;;;;13.39;21.78;101382.59;4935672;29;20051;-82
2022/03/11 03:52:11;;;;;;;9.65;6.18;;;;;;;13.40;21.94;101383.47;4917096;29;20103;-82
2022/03/11 03:54:41;;;;;;;9.27;6.20;;;;;;;13.42;21.96;101382.38;4931098;29;20055;-82
2022/03/11 03:57:09;;;;;;;10.65;6.20;;;;;;;13.38;21.81;101386.28;4902761;29;20060;-82
2022/03/11 03:59:35;;;;;;;8.98;5.90;;;;;;;13.36;21.83;101387.38;4931931;29;20083;-82
2022/03/11 04:02:02;;;;;;;8.77;5.93;;;;;;;13.33;22.20;101389.34;4936553;29;20051;-82
2022/03/11 04:04:29;;;;;;;9.30;6.35;;;;;;;13.28;22.12;101386.06;4941103;29;20515;-83
2022/03/11 04:06:56;;;;;;;8.00;5.53;;;;;;;13.26;22.13;101390.75;4938525;28;20471;-82
2022/03/11 04:09:23;;;;;;;10.20;6.07;;;;;;;13.24;21.99;101390.00;4936649;28;20055;-82
2022/03/11 04:11:50;;;;;;;11.10;6.68;;;;;;;13.20;22.18;101385.72;4936370;29;20051;-82
2022/03/11 04:14:16;;;;;;;9.98;6.30;;;;;;;13.19;21.98;101391.28;4939576;29;20503;-82
2022/03/11 04:16:43;;;;;;;10.02;6.20;;;;;;;13.17;21.97;101394.13;4932186;29;20110;-82
2022/03/11 04:19:10;;;;;;;10.98;6.32;;;;;;;13.15;22.14;101395.22;4935706;29;20067;-82
2022/03/11 04:21:37;;;;;;;8.68;5.60;;;;;;;13.11;22.02;101391.78;4936015;29;20056;-82
2022/03/11 04:24:05;;;;;;;9.50;5.88;;;;;;;13.09;22.11;101391.03;4917572;29;20400;-82
2022/03/11 04:26:32;;;;;;;11.20;6.18;;;;;;;13.06;22.18;101390.34;4916473;29;20062;-82
2022/03/11 04:28:59;;;;;;;10.30;6.18;;;;;;;13.08;22.22;101399.31;4933613;29;20052;-82
2022/03/11 04:31:26;;;;;;;9.63;5.90;;;;;;;13.02;22.31;101386.94;4923283;29;20051;-83
2022/03/11 04:33:53;;;;;;;10.68;7.00;;;;;;;12.99;22.43;101387.19;4932579;29;20103;-82
2022/03/11 04:36:19;;;;;;;12.30;7.00;;;;;;;12.94;22.59;101387.47;4934342;29;20043;-82
2022/03/11 04:38:46;;;;;;;11.40;6.70;;;;;;;12.91;22.60;101382.25;4919141;29;20471;-83
2022/03/11 04:41:13;;;;;;;11.25;7.40;;;;;;;12.87;22.62;101385.28;4917763;29;20104;-83
2022/03/11 04:43:42;;;;;;;10.65;6.47;;;;;;;12.86;22.67;101381.66;4917307;29;20062;-84
2022/03/11 04:46:09;;;;;;;10.25;6.65;;;;;;;12.82;22.64;101379.28;4919540;29;20059;-83
2022/03/11 04:48:36;;;;;;;12.88;7.65;;;;;;;12.78;22.77;101397.66;4934228;28;20052;-83
2022/03/11 04:51:03;;;;;;;11.48;7.03;;;;;;;12.78;22.64;101385.91;4921288;29;20055;-82
2022/03/11 04:53:30;;;;;;;10.95;6.60;;;;;;;12.75;22.63;101384.28;4935775;29;20520;-82
2022/03/11 04:55:57;;;;;;;13.60;7.30;;;;;;;12.74;22.89;101395.28;4922458;29;20432;-83
2022/03/11 04:58:24;;;;;;;10.52;6.82;;;;;;;12.71;22.71;101392.75;4917112;28;20119;-83
2022/03/11 05:00:58;;;;;;;10.55;7.03;;;;;;;12.66;22.77;101381.28;4918214;29;20106;-83
2022/03/11 05:03:25;;;;;;;10.93;7.03;;;;;;;12.64;22.79;101381.38;4938139;29;20134;-81
2022/03/11 05:05:52;;;;;;;10.40;6.65;;;;;;;12.63;22.81;101376.03;4931383;29;20042;-82
2022/03/11 05:08:18;;;;;;;11.85;7.57;;;;;;;12.59;22.90;101378.09;4918272;29;20079;-83
2022/03/11 05:10:45;;;;;;;12.23;7.72;;;;;;;12.56;23.05;101379.19;4948563;29;20075;-83
2022/03/11 05:13:12;;;;;;;11.93;7.70;;;;;;;12.55;22.91;101384.72;4919641;29;20054;-82
2022/03/11 05:15:39;;;;;;;11.35;7.20;;;;;;;12.52;22.88;101393.09;4937366;29;20054;-82
2022/03/11 05:18:08;;;;;;;11.55;7.30;;;;;;;12.48;23.01;101388.84;4945222;28;20083;-82
2022/03/11 05:20:35;;;;;;;11.35;7.70;;;;;;;12.46;22.92;101391.66;4917820;29;20075;-82
2022/03/11 05:23:02;;;;;;;12.65;7.72;;;;;;;12.46;23.08;101396.22;4933903;29;20052;-83
2022/03/11 05:25:30;;;;;;;11.52;7.45;;;;;;;12.43;23.29;101396.44;4934339;29;20484;-84
2022/03/11 05:27:57;;;;;;;13.63;7.53;;;;;;;12.43;23.04;101393.72;4920811;29;20501;-83
2022/03/11 05:30:25;;;;;;;10.95;7.28;;;;;;;12.41;23.25;101392.94;4934784;29;20048;-83
2022/03/11 05:32:53;;;;;;;10.77;7.50;;;;;;;12.42;23.17;101383.81;4933608;29;20074;-81
2022/03/11 05:35:20;;;;;;;12.18;7.13;;;;;;;12.42;23.17;101390.13;4915517;29;20051;-82
2022/03/11 05:37:47;;;;;;;11.07;6.88;;;;;;;12.41;23.19;101385.66;4917382;29;20082;-83
2022/03/11 05:40:14;;;;;;;12.57;7.80;;;;;;;12.41;23.22;101373.88;4924567;29;20070;-81
2022/03/11 05:42:41;;;;;;;13.20;7.85;;;;;;;12.40;23.33;101385.75;4926744;29;20044;-81
2022/03/11 05:45:08;;;;;;;13.93;8.70;;;;;;;12.40;23.57;101374.84;4933058;29;20107;-81
2022/03/11 05:47:36;;;;;;;12.13;7.80;;;;;;;12.40;23.52;101377.56;4937059;29;20051;-83
2022/03/11 05:50:03;;;;;;;12.23;8.38;;;;;;;12.36;23.33;101376.00;4909540;29;20090;-83
2022/03/11 05:52:30;;;;;;;12.18;8.45;;;;;;;12.34;23.58;101383.44;4920169;29;20086;-82
2022/03/11 05:54:57;;;;;;;13.05;8.27;;;;;;;12.33;23.35;101378.97;4935080;29;20063;-82
2022/03/11 05:57:24;;;;;;;12.20;8.23;;;;;;;12.28;23.43;101373.78;4933642;29;20119;-82
2022/03/11 05:59:50;;;;;;;13.40;7.50;;;;;;;12.25;23.69;101370.41;4926208;29;20499;-82
2022/03/11 06:02:17;;;;;;;14.43;9.23;;;;;;;12.24;23.58;101376.84;4943386;29;20062;-82
2022/03/11 06:04:44;;;;;;;14.18;9.10;;;;;;;12.19;23.73;101367.09;4915872;29;20047;-80
2022/03/11 06:07:11;;;;;;;12.30;8.13;;;;;;;12.18;23.65;101361.78;4938357;29;20063;-81
2022/03/11 06:09:38;;;;;;;13.13;8.52;;;;;;;12.13;23.73;101366.63;4931782;28;20055;-80
2022/03/11 06:12:06;;;;;;;13.27;8.77;;;;;;;12.11;24.03;101374.03;4932279;29;20114;-81
2022/03/11 06:14:32;;;;;;;11.77;8.07;;;;;;;12.07;23.92;101356.16;4933508;28;20146;-81
2022/03/11 06:16:59;;;;;;;13.95;9.25;;;;;;;12.05;24.01;101356.25;4937237;29;20043;-81
2022/03/11 06:19:26;;;;;;;15.93;9.77;;;;;;;11.99;23.90;101353.06;4931642;29;20126;-81
2022/03/11 06:21:57;;;;;;;13.27;8.80;;;;;;;11.96;23.90;101354.13;4933982;29;20051;-82
2022/03/11 06:24:24;;;;;;;12.95;8.52;;;;;;;11.93;23.99;101350.75;4915017;29;20051;-82
2022/03/11 06:26:51;;;;;;;13.40;9.18;;;;;;;11.91;24.01;101361.72;4929000;29;20099;-82
2022/03/11 06:29:18;;;;;;;15.45;9.75;;;;;;;11.86;24.12;101352.13;4925390;29;20500;-81
2022/03/11 06:31:45;;;;;;;15.38;9.13;;;;;;;11.84;24.13;101357.66;4926151;29;20051;-84
2022/03/11 06:34:12;;;;;;;14.93;9.70;;;;;;;11.84;24.09;101354.94;4940386;29;20071;-82
2022/03/11 06:36:39;;;;;;;14.38;9.73;;;;;;;11.80;24.25;101358.81;4934805;29;20103;-82
2022/03/11 06:39:07;;;;;;;15.50;9.82;;;;;;;11.80;24.25;101359.69;4921112;29;20055;-82
2022/03/11 06:41:34;;;;;;;14.40;9.45;;;;;;;11.78;24.22;101349.84;4921027;29;20048;-82
2022/03/11 06:44:01;;;;;;;19.17;10.60;;;;;;;11.78;24.60;101361.63;4931530;28;20044;-84
2022/03/11 06:46:29;;;;;;;16.33;10.45;;;;;;;11.78;24.52;101363.47;4925053;29;20126;-84
2022/03/11 06:48:56;;;;;;;14.85;10.82;;;;;;;11.75;24.62;101356.38;4931785;29;20067;-85
2022/03/11 06:51:23;;;;;;;15.85;10.15;;;;;;;11.75;24.92;101358.22;4920919;29;20043;-85
2022/03/11 06:53:50;;;;;;;15.85;10.60;;;;;;;11.76;25.05;101355.44;4931295;29;20085;-82
2022/03/11 06:56:17;;;;;;;15.52;10.45;;;;;;;11.82;25.32;101351.44;4916308;29;20110;-83
2022/03/11 06:58:44;;;;;;;17.00;11.02;;;;;;;11.91;25.44;101352.69;4914717;28;20119;-82
2022/03/11 07:01:11;;;;;;;14.48;9.93;;;;;;;12.06;25.58;101355.28;4932145;29;20044;-83
2022/03/11 07:03:38;;;;;;;16.65;11.32;;;;;;;12.23;25.62;101356.91;4931938;29;20047;-83
2022/03/11 07:06:05;;;;;;;15.20;10.35;;;;;;;12.39;25.72;101360.34;4939199;29;20047;-81
2022/03/11 07:08:32;;;;;;;16.98;9.95;;;;;;;12.57;25.77;101367.31;4933771;29;20070;-74
2022/03/11 07:10:59;;;;;;;15.80;10.18;;;;;;;12.74;25.49;101368.03;4940307;29;20039;-73
2022/03/11 07:13:26;;;;;;;14.98;9.95;;;;;;;12.91;25.38;101370.47;4929592;29;20499;-73
2022/03/11 07:15:56;;;;;;;14.93;9.43;;;;;;;13.08;25.21;101370.19;4929430;29;20059;-83
2022/03/11 07:18:23;;;;;;;14.52;9.48;;;;;;;13.24;25.03;101365.44;4930267;29;20554;-81
2022/03/11 07:20:50;;;;;;;15.27;9.82;;;;;;;13.44;24.94;101371.34;4933228;29;20047;-84
2022/03/11 07:23:27;;;;;;;13.95;9.90;;;;;;;13.63;25.09;101375.41;4927339;29;20111;-83
2022/03/11 07:25:54;;;;;;;14.75;9.85;;;;;;;13.84;25.15;101372.09;4934302;29;20051;-85
2022/03/11 07:28:21;;;;;;;13.65;9.60;;;;;;;14.09;24.81;101372.94;4931972;29;20603;-85
2022/03/11 07:30:48;;;;;;;15.02;9.88;;;;;;;14.29;24.55;101389.72;4919382;29;20054;-85
2022/03/11 07:33:15;;;;;;;14.15;9.65;;;;;;;14.50;24.54;101381.81;4930214;29;20103;-84
2022/03/11 07:35:42;;;;;;;13.48;9.98;;;;;;;14.69;24.47;101388.53;4920508;28;20143;-86
2022/03/11 07:38:09;;;;;;;14.50;10.18;;;;;;;14.85;24.17;101386.38;4938233;29;20080;-84
2022/03/11 07:40:38;;;;;;;16.48;11.23;;;;;;;15.02;23.46;101373.25;4917971;29;20051;-84
2022/03/11 07:43:07;;;;;;;15.25;11.02;;;;;;;15.16;23.41;101376.66;4927982;28;20048;-85
2022/03/11 07:45:36;;;;;;;14.10;9.88;;;;;;;15.30;23.26;101385.69;4912850;28;20048;-82
2022/03/11 07:48:03;;;;;;;15.10;10.13;;;;;;;15.38;23.29;101372.28;4925206;29;20057;-82
2022/03/11 07:50:32;;;;;;;15.68;10.93;;;;;;;15.48;22.86;101368.66;4928166;29;20495;-84
2022/03/11 07:52:59;;;;;;;13.93;9.70;;;;;;;15.58;22.88;101377.94;4936981;29;20465;-83
2022/03/11 07:55:25;;;;;;;14.50;9.63;;;;;;;15.65;22.98;101372.81;4940854;29;20047;-84
2022/03/11 07:57:52;;;;;;;14.40;10.18;;;;;;;15.73;22.65;101353.91;4923058;29;20048;-87
2022/03/11 08:00:19;;;;;;;13.40;9.43;;;;;;;15.79;22.44;101371.75;4924735;29;20079;-88
2022/03/11 08:02:46;;;;;;;15.23;10.73;;;;;;;15.80;21.72;101355.19;4940556;29;20147;-83
2022/03/11 08:05:15;;;;;;;15.18;10.85;;;;;;;15.78;22.06;101357.19;4940889;28;20467;-85
2022/03/11 08:07:46;;;;;;;14.65;10.45;;;;;;;15.77;21.77;101366.38;4935822;29;20403;-85
2022/03/11 08:10:13;;;;;;;14.48;9.93;;;;;;;15.70;21.63;101351.44;4915903;29;20079;-85
2022/03/11 08:12:40;;;;;;;14.20;10.07;;;;;;;15.62;21.39;101345.72;4940131;29;20430;-86
2022/03/11 08:15:08;;;;;;;13.80;10.05;;;;;;;15.53;21.48;101347.31;4926180;29;20065;-85
2022/03/11 08:17:35;;;;;;;14.40;10.70;;;;;;;15.46;21.64;101336.97;4922775;29;20047;-85
2022/03/11 08:20:02;;;;;;;16.20;11.00;;;;;;;15.38;21.36;101340.31;4917324;28;20138;-85
2022/03/11 08:22:29;;;;;;;15.68;10.57;;;;;;;15.27;21.59;101329.31;4926880;29;20055;-84
2022/03/11 08:24:56;;;;;;;15.70;11.00;;;;;;;15.19;21.59;101334.53;4916215;29;20048;-81
2022/03/11 08:27:23;;;;;;;16.23;10.80;;;;;;;15.12;21.33;101334.16;4934969;29;20055;-83
2022/03/11 08:29:50;;;;;;;17.88;11.60;;;;;;;15.05;21.67;101346.56;4923859;29;20052;-85
2022/03/11 08:32:17;;;;;;;15.07;11.02;;;;;;;14.97;21.48;101353.63;4940550;29;20472;-84
2022/03/11 08:34:44;;;;;;;15.45;11.30;;;;;;;14.90;21.24;101325.00;4921231;29;20324;-85
2022/03/11 08:37:31;;;;;;;14.05;10.05;;;;;;;14.79;21.74;101326.69;4925504;29;20083;-85
2022/03/11 08:40:03;;;;;;;13.82;10.00;;;;;;;14.74;21.94;101314.38;4910764;29;20576;-85
2022/03/11 08:42:30;;;;;;;15.10;9.88;;;;;;;14.70;21.91;101327.41;4938334;29;20051;-86
2022/03/11 08:44:59;;;;;;;15.75;10.18;;;;;;;14.68;21.89;101323.91;4915928;29;20044;-83
2022/03/11 08:47:27;;;;;;;13.48;8.98;;;;;;;14.68;22.18;101329.38;4944503;29;20134;-74
2022/03/11 08:49:54;;;;;;;12.65;9.27;;;;;;;14.67;22.62;101310.34;4922680;29;20047;-73
2022/03/11 08:52:24;;;;;;;15.85;10.18;;;;;;;14.70;22.62;101321.06;4932443;29;20051;-74
2022/03/11 08:54:54;;;;;;;;;;;;;;;14.51;22.81;101310.66;4932071;29;20053;-74
2022/03/11 08:57:21;;;;;;;14.10;9.50;;;;;;;14.74;22.62;101312.50;4927280;29;20242;-73
2022/03/11 08:59:48;;;;;;;15.15;9.93;;;;;;;14.83;22.71;101294.50;4932521;28;20043;-73
2022/03/11 09:02:15;;;;;;;15.10;10.18;;;;;;;14.87;22.64;101293.31;4941842;29;20239;-73
2022/03/11 09:04:45;;;;;;;14.65;10.30;;;;;;;14.94;22.81;101299.16;4936100;29;20064;-73
2022/03/11 09:07:12;;;;;;;15.23;10.13;;;;;;;15.02;22.53;101296.69;4932856;29;20052;-73
2022/03/11 09:09:40;;;;;;;14.57;10.60;;;;;;;15.07;22.31;101292.59;4932968;29;20044;-73
2022/03/11 09:12:08;;;;;;;13.65;9.90;;;;;;;15.12;22.10;101284.91;4939163;29;20102;-73
2022/03/11 09:14:34;;;;;;;14.90;10.48;;;;;;;15.16;22.36;101291.00;4924062;29;20059;-73
2022/03/11 09:17:01;;;;;;;13.70;9.57;;;;;;;15.22;22.38;101285.06;4935616;29;20056;-73
2022/03/11 09:19:29;;;;;;;13.75;9.55;;;;;;;15.28;22.26;101279.09;4923486;29;20419;-73
2022/03/11 09:21:56;;;;;;;15.45;10.27;;;;;;;15.35;22.35;101274.88;4931710;29;20458;-73
2022/03/11 09:24:22;;;;;;;13.32;9.75;;;;;;;15.43;22.21;101285.19;4928403;29;20048;-73
2022/03/11 09:26:58;;;;;;;13.27;9.13;;;;;;;15.48;21.95;101283.81;4930803;29;20455;-73
2022/03/11 09:29:28;;;;;;;15.02;10.05;;;;;;;15.52;22.12;101290.81;4919178;29;20510;-81
2022/03/11 09:31:56;;;;;;;14.38;9.52;;;;;;;15.61;22.03;101286.50;4932254;29;20698;-81
2022/03/11 09:34:26;;;;;;;13.85;10.02;;;;;;;15.68;21.77;101295.06;4931244;29;20114;-82
2022/03/11 09:36:53;;;;;;;12.70;9.60;;;;;;;15.71;21.99;101294.84;4930450;29;20044;-82
2022/03/11 09:39:23;;;;;;;13.10;9.00;;;;;;;15.77;22.06;101289.72;4908126;29;20050;-83
2022/03/11 09:41:51;;;;;;;14.80;9.80;;;;;;;15.83;21.54;101296.56;4926519;29;20063;-82
2022/03/11 09:44:19;;;;;;;14.10;9.63;;;;;;;15.85;21.53;101289.09;4924480;29;20067;-83
2022/03/11 09:46:47;;;;;;;14.55;10.75;;;;;;;15.88;21.37;101288.84;4933717;29;20126;-82
2022/03/11 09:49:16;;;;;;;12.93;9.40;;;;;;;15.88;21.76;101291.59;4918223;29;20067;-84
2022/03/11 09:51:45;;;;;;;14.60;9.55;;;;;;;15.89;21.75;101293.34;4916323;29;20051;-82
2022/03/11 09:54:13;;;;;;;12.85;9.52;;;;;;;15.90;21.59;101279.50;4934538;29;20131;-83
2022/03/11 09:56:42;;;;;;;13.48;10.07;;;;;;;15.94;21.35;101288.34;4931908;29;20531;-82
2022/03/11 09:59:10;;;;;;;14.10;10.27;;;;;;;15.95;21.42;101274.53;4935683;28;20087;-82
2022/03/11 10:01:41;;;;;;;15.35;10.02;;;;;;;15.95;21.15;101279.13;4918938;29;20060;-81
2022/03/11 10:04:09;;;;;;;13.63;9.55;;;;;;;15.94;21.25;101271.91;4916631;29;20059;-82
2022/03/11 10:06:40;;;;;;;16.30;10.50;;;;;;;15.95;21.43;101265.44;4934283;29;20061;-82
2022/03/11 10:09:30;;;;;;;15.15;9.88;;;;;;;15.96;21.24;101269.94;4935710;29;20098;-81
2022/03/11 10:11:58;;;;;;;14.60;9.23;;;;;;;15.98;21.52;101266.03;4931927;29;20102;-81
2022/03/11 10:14:35;;;;;;;14.68;9.80;;;;;;;16.03;21.52;101260.19;4933290;29;20047;-81
2022/03/11 10:17:04;;;;;;;13.13;10.05;;;;;;;16.07;21.41;101269.00;4917616;29;20048;-81
2022/03/11 10:19:31;;;;;;;13.98;9.40;;;;;;;16.12;21.71;101253.09;4936573;28;20059;-81
2022/03/11 10:21:59;;;;;;;14.63;9.75;;;;;;;16.17;21.28;101259.03;4932258;29;20056;-81
2022/03/11 10:24:27;;;;;;;15.13;10.25;;;;;;;16.20;21.36;101272.47;4935152;29;20047;-81
2022/03/11 10:26:58;;;;;;;15.40;10.10;;;;;;;16.30;21.19;101267.97;4931181;29;20055;-81
2022/03/11 10:29:34;;;;;;;13.02;9.80;;;;;;;16.31;21.27;101276.03;4936527;29;20087;-82
2022/03/11 10:32:03;;;;;;;15.25;9.10;;;;;;;16.34;21.23;101269.44;4922595;29;20058;-82
2022/03/11 10:34:32;;;;;;;12.55;8.80;;;;;;;16.40;21.32;101270.78;4932211;29;20103;-81
2022/03/11 10:37:09;;;;;;;14.57;9.00;;;;;;;16.45;21.23;101254.84;4911962;29;20150;-82
2022/03/11 10:39:44;;;;;;;13.65;9.75;;;;;;;16.49;20.55;101264.53;4922875;29;20145;-83
2022/03/11 10:42:18;;;;;;;14.18;10.43;;;;;;;16.48;20.85;101241.72;4918286;29;20077;-82
2022/03/11 10:45:05;;;;;;;13.75;9.73;;;;;;;16.51;20.64;101252.44;4920424;29;20056;-81
2022/03/11 10:47:33;;;;;;;15.38;10.82;;;;;;;16.49;20.83;101261.78;4914575;29;20411;-80
2022/03/11 10:50:12;;;;;;;14.77;10.48;;;;;;;16.50;20.77;101245.22;4930979;29;20159;-81
2022/03/11 10:52:39;;;;;;;13.23;9.02;;;;;;;16.46;20.71;101232.78;4920889;29;20060;-81
2022/03/11 10:55:19;;;;;;;14.90;9.57;;;;;;;16.49;20.96;101235.25;4929474;29;20056;-81
2022/03/11 10:57:47;;;;;;;13.85;10.38;;;;;;;16.48;20.65;101224.41;4923296;29;20039;-80
2022/03/11 11:00:32;;;;;;;14.70;10.55;;;;;;;16.49;20.44;101218.81;4955221;28;20048;-81
2022/03/11 11:03:05;;;;;;;15.23;10.82;;;;;;;16.54;20.56;101218.44;4929722;29;20492;-81
2022/03/11 11:05:33;;;;;;;17.42;11.40;;;;;;;16.47;20.62;101236.41;4934031;29;20118;-81
2022/03/11 11:08:02;;;;;;;13.95;9.98;;;;;;;16.47;20.37;101229.03;4930891;29;20444;-79
2022/03/11 11:10:31;;;;;;;13.55;9.40;;;;;;;16.47;20.73;101220.78;4923592;29;20467;-80
2022/03/11 11:12:59;;;;;;;14.18;9.77;;;;;;;16.50;20.96;101227.91;4940450;29;20075;-75
2022/03/11 11:15:26;;;;;;;12.70;9.05;;;;;;;16.51;21.17;101214.06;4932124;29;20059;-78
2022/03/11 11:17:53;;;;;;;13.43;9.93;;;;;;;16.58;20.75;101207.06;4933373;29;20083;-78
2022/03/11 11:20:48;;;;;;;12.85;9.38;;;;;;;16.66;20.91;101200.94;4943767;28;20052;-79
2022/03/11 11:23:16;;;;;;;12.77;9.05;;;;;;;16.70;20.90;101207.91;4929043;29;20043;-77